Time;durP1;ratioP1;P1;durP2;ratioP2;P2;SDS_P1;SDS_P2;PMS_P1;PMS_P2;Temp;Humidity;BMP_temperature;BMP_pressure;BME280_temperature;BME280_humidity;BME280_pressure;Samples;Min_cycle;Max_cycle;Signal;HPM_P1;HPM_P2
2023/05/08 00:02:14;;;;;;;4.33;3.93;;;;;;;9.53;100.00;102601.22;5016996;28;20241;-68
2023/05/08 00:04:40;;;;;;;4.60;4.20;;;;;;;9.52;100.00;102602.03;5019792;28;20209;-68
2023/05/08 00:07:05;;;;;;;4.20;3.80;;;;;;;9.44;100.00;102600.75;5014125;28;20203;-67
2023/05/08 00:09:30;;;;;;;4.30;3.90;;;;;;;9.45;100.00;102599.94;5018149;28;20186;-68
2023/05/08 00:11:56;;;;;;;5.23;4.00;;;;;;;9.49;100.00;102601.88;5009987;28;20214;-68
2023/05/08 00:14:21;;;;;;;3.93;3.57;;;;;;;9.46;100.00;102606.84;5009708;28;20198;-68
2023/05/08 00:16:47;;;;;;;3.93;3.60;;;;;;;9.43;100.00;102596.44;5020191;28;20316;-68
2023/05/08 00:19:12;;;;;;;5.30;4.27;;;;;;;9.41;100.00;102603.16;5019105;28;20578;-68
2023/05/08 00:21:38;;;;;;;3.60;3.30;;;;;;;9.40;100.00;102603.94;5019403;28;20534;-68
2023/05/08 00:24:03;;;;;;;4.67;4.20;;;;;;;9.40;100.00;102593.72;5016912;28;20293;-68
2023/05/08 00:26:29;;;;;;;4.13;3.83;;;;;;;9.35;100.00;102594.31;5021747;28;20210;-69
2023/05/08 00:28:54;;;;;;;4.50;4.07;;;;;;;9.33;100.00;102596.78;5022722;28;20186;-69
2023/05/08 00:31:20;;;;;;;5.30;3.83;;;;;;;9.37;100.00;102578.25;5008530;28;20246;-69
2023/05/08 00:33:45;;;;;;;4.77;4.37;;;;;;;9.35;100.00;102581.53;5010078;28;20241;-69
2023/05/08 00:36:11;;;;;;;4.73;3.80;;;;;;;9.32;100.00;102583.91;5009093;28;20201;-68
2023/05/08 00:38:36;;;;;;;4.00;3.70;;;;;;;9.32;100.00;102579.69;5021320;28;20218;-69
2023/05/08 00:41:03;;;;;;;4.00;3.60;;;;;;;9.33;100.00;102585.66;5014829;28;20638;-68
2023/05/08 00:43:28;;;;;;;4.27;3.87;;;;;;;9.33;100.00;102583.09;5023339;28;20190;-68
2023/05/08 00:46:00;;;;;;;6.23;4.30;;;;;;;9.32;100.00;102579.69;5011397;28;20201;-68
2023/05/08 00:48:32;;;;;;;4.37;3.97;;;;;;;9.32;100.00;102574.56;5027992;28;20210;-68
2023/05/08 00:51:02;;;;;;;4.47;4.07;;;;;;;9.33;100.00;102577.97;5010141;28;20244;-68
2023/05/08 00:53:29;;;;;;;4.27;3.70;;;;;;;9.35;100.00;102567.03;5010878;28;20330;-69
2023/05/08 00:55:55;;;;;;;5.40;3.60;;;;;;;9.30;100.00;102581.25;5025503;28;20209;-69
2023/05/08 00:58:22;;;;;;;3.80;3.30;;;;;;;9.33;100.00;102570.31;5006868;28;20242;-69
2023/05/08 01:00:49;;;;;;;4.10;3.70;;;;;;;9.32;100.00;102561.78;5011654;28;20225;-69
2023/05/08 01:03:15;;;;;;;3.87;3.43;;;;;;;9.32;100.00;102563.47;5008833;28;20274;-68
2023/05/08 01:05:41;;;;;;;5.80;4.13;;;;;;;9.31;100.00;102562.56;5005983;28;20715;-70
2023/05/08 01:08:07;;;;;;;3.70;3.30;;;;;;;9.28;100.00;102561.53;5020138;28;20282;-69
2023/05/08 01:11:08;;;;;;;4.07;3.67;;;;;;;9.33;100.00;102558.44;5008213;28;20313;-69
2023/05/08 01:14:02;;;;;;;4.00;3.70;;;;;;;9.24;100.00;102570.72;5019204;28;20205;-69
2023/05/08 01:16:55;;;;;;;4.40;3.90;;;;;;;9.27;100.00;102570.00;5020455;28;20225;-69
2023/05/08 01:19:45;;;;;;;4.00;3.60;;;;;;;9.26;100.00;102576.78;5023589;28;20206;-68
2023/05/08 01:22:48;;;;;;;4.70;3.67;;;;;;;9.23;100.00;102581.75;5009560;28;20707;-69
2023/05/08 01:25:50;;;;;;;4.37;3.60;;;;;;;9.24;100.00;102578.41;5020271;28;20194;-69
2023/05/08 01:28:25;;;;;;;3.60;3.30;;;;;;;9.18;100.00;102578.09;5009093;28;20746;-69
2023/05/08 01:31:22;;;;;;;4.23;3.70;;;;;;;9.16;100.00;102587.31;5025069;28;20217;-70
2023/05/08 01:33:50;;;;;;;3.80;3.50;;;;;;;9.17;100.00;102593.34;5020198;28;20657;-69
2023/05/08 01:36:49;;;;;;;4.63;4.10;;;;;;;9.14;100.00;102595.72;5023312;28;20198;-69
2023/05/08 01:39:44;;;;;;;4.50;4.10;;;;;;;9.14;100.00;102600.81;4993347;28;20695;-69
2023/05/08 01:42:25;;;;;;;5.20;3.63;;;;;;;9.11;100.00;102603.19;5017929;28;20218;-70
2023/05/08 01:45:02;;;;;;;5.17;4.23;;;;;;;9.05;100.00;102611.44;5022368;28;20550;-69
2023/05/08 01:47:31;;;;;;;5.53;4.33;;;;;;;9.02;100.00;102606.16;5006080;28;20282;-70
2023/05/08 01:50:29;;;;;;;5.17;3.93;;;;;;;8.99;100.00;102608.53;5005025;28;20197;-68
2023/05/08 01:53:01;;;;;;;5.20;4.30;;;;;;;8.99;100.00;102598.31;5006585;28;20207;-68
2023/05/08 01:55:33;;;;;;;4.30;3.90;;;;;;;8.94;100.00;102597.19;5012684;28;20226;-68
2023/05/08 01:58:01;;;;;;;4.53;4.13;;;;;;;8.90;100.00;102599.53;5014143;28;20202;-68
2023/05/08 02:00:30;;;;;;;4.53;4.13;;;;;;;8.88;100.00;102598.53;5010261;28;20298;-68
2023/05/08 02:02:58;;;;;;;4.40;4.00;;;;;;;8.78;100.00;102593.72;5022129;28;20604;-68
2023/05/08 02:05:25;;;;;;;4.63;4.10;;;;;;;8.82;100.00;102598.22;5023587;28;20244;-70
2023/05/08 02:07:51;;;;;;;4.73;4.13;;;;;;;8.81;100.00;102596.47;5008360;28;20722;-70
2023/05/08 02:10:19;;;;;;;4.57;3.97;;;;;;;8.77;100.00;102600.53;5025930;28;20203;-70
2023/05/08 02:12:46;;;;;;;6.13;4.60;;;;;;;8.73;100.00;102596.06;5026599;28;20261;-70
2023/05/08 02:15:14;;;;;;;6.10;4.90;;;;;;;8.65;100.00;102604.94;5006770;28;20252;-69
2023/05/08 02:17:42;;;;;;;5.10;4.63;;;;;;;8.65;100.00;102599.84;5026287;28;20228;-69
2023/05/08 02:20:13;;;;;;;5.83;4.57;;;;;;;8.66;100.00;102601.59;5017956;28;20234;-69
2023/05/08 02:22:42;;;;;;;5.13;4.63;;;;;;;8.60;100.00;102605.47;5008151;28;20198;-68
2023/05/08 02:25:10;;;;;;;5.57;4.83;;;;;;;8.56;100.00;102601.91;5023476;28;20210;-69
2023/05/08 02:27:38;;;;;;;5.50;5.03;;;;;;;8.54;100.00;102607.72;5017561;28;20198;-69
2023/05/08 02:30:05;;;;;;;5.23;4.50;;;;;;;8.50;100.00;102598.13;5025046;28;20177;-69
2023/05/08 02:32:31;;;;;;;6.37;4.97;;;;;;;8.52;100.00;102605.06;5006454;28;20210;-68
2023/05/08 02:34:57;;;;;;;5.37;4.37;;;;;;;8.51;100.00;102605.88;5021425;28;20202;-69
2023/05/08 02:37:25;;;;;;;5.40;4.90;;;;;;;8.44;100.00;102605.44;5010819;28;20244;-69
2023/05/08 02:39:53;;;;;;;4.97;4.47;;;;;;;8.39;100.00;102599.19;5006240;28;20210;-68
2023/05/08 02:42:19;;;;;;;5.17;4.70;;;;;;;8.39;100.00;102591.53;5007393;28;20225;-68
2023/05/08 02:44:44;;;;;;;5.53;4.87;;;;;;;8.34;100.00;102591.28;5009252;28;20206;-70
2023/05/08 02:47:27;;;;;;;5.13;4.67;;;;;;;8.37;100.00;102593.13;5018274;28;20253;-70
2023/05/08 02:50:15;;;;;;;5.23;4.77;;;;;;;8.32;100.00;102591.97;5023200;28;20268;-70
2023/05/08 02:52:51;;;;;;;5.60;5.00;;;;;;;8.25;100.00;102588.19;5007671;28;20198;-69
2023/05/08 02:55:35;;;;;;;5.70;4.73;;;;;;;8.29;100.00;102590.13;5009180;28;20207;-69
2023/05/08 02:58:08;;;;;;;5.27;4.77;;;;;;;8.22;100.00;102593.16;5013969;28;20287;-69
2023/05/08 03:00:43;;;;;;;6.07;5.20;;;;;;;8.16;100.00;102590.19;5022175;28;20301;-69
2023/05/08 03:03:31;;;;;;;5.53;5.03;;;;;;;8.17;100.00;102586.88;5020362;28;20199;-70
2023/05/08 03:06:01;;;;;;;5.70;5.10;;;;;;;8.13;100.00;102586.59;5024366;28;20649;-69
2023/05/08 03:08:31;;;;;;;5.70;5.20;;;;;;;8.06;100.00;102580.25;5020203;28;20194;-69
2023/05/08 03:11:00;;;;;;;6.87;5.43;;;;;;;8.08;100.00;102585.47;5014656;28;20278;-69
2023/05/08 03:13:33;;;;;;;7.00;4.80;;;;;;;8.09;100.00;102589.75;5016582;28;20194;-70
2023/05/08 03:16:01;;;;;;;5.70;5.03;;;;;;;8.08;100.00;102586.34;5023048;28;20190;-70
2023/05/08 03:18:33;;;;;;;5.30;4.90;;;;;;;8.06;100.00;102582.81;5007577;28;20190;-70
2023/05/08 03:21:00;;;;;;;6.20;5.00;;;;;;;8.05;100.00;102577.63;5005287;28;20210;-71
2023/05/08 03:23:28;;;;;;;5.70;5.07;;;;;;;8.01;100.00;102576.56;5006840;28;20679;-70
2023/05/08 03:25:56;;;;;;;5.27;4.77;;;;;;;8.06;100.00;102584.50;5023137;28;20206;-69
2023/05/08 03:28:22;;;;;;;5.57;4.30;;;;;;;8.02;100.00;102573.22;5006926;28;20651;-69
2023/05/08 03:30:49;;;;;;;7.63;5.47;;;;;;;8.00;100.00;102576.47;5019660;28;20271;-69
2023/05/08 03:33:16;;;;;;;6.00;5.33;;;;;;;7.98;100.00;102578.97;5006177;28;20224;-70
2023/05/08 03:35:43;;;;;;;5.27;4.77;;;;;;;7.92;100.00;102577.72;5005952;28;20195;-70
2023/05/08 03:38:09;;;;;;;7.40;5.47;;;;;;;7.88;100.00;102580.91;5007526;28;20199;-70
2023/05/08 03:40:37;;;;;;;5.53;5.03;;;;;;;7.86;100.00;102578.25;5023060;28;20259;-69
2023/05/08 03:43:06;;;;;;;6.03;5.30;;;;;;;7.85;100.00;102578.16;5020445;28;20198;-69
2023/05/08 03:45:35;;;;;;;5.90;5.30;;;;;;;7.82;100.00;102578.84;5007825;28;20194;-69
2023/05/08 03:48:04;;;;;;;5.87;5.27;;;;;;;7.81;100.00;102572.00;5006816;28;20728;-69
2023/05/08 03:50:30;;;;;;;7.30;5.60;;;;;;;7.86;100.00;102579.91;5005665;28;20206;-70
2023/05/08 03:52:57;;;;;;;6.43;5.13;;;;;;;7.87;100.00;102582.56;5004279;28;20191;-69
2023/05/08 03:55:23;;;;;;;6.33;5.27;;;;;;;7.89;100.00;102586.09;5017570;28;20218;-69
2023/05/08 03:58:09;;;;;;;7.27;5.70;;;;;;;7.84;100.00;102574.72;5009338;28;20194;-70
2023/05/08 04:01:03;;;;;;;7.20;5.27;;;;;;;7.84;100.00;102582.38;5007666;28;20218;-69
2023/05/08 04:03:58;;;;;;;5.70;5.10;;;;;;;7.89;100.00;102581.00;5025982;28;20289;-69
2023/05/08 04:06:47;;;;;;;6.30;5.67;;;;;;;7.85;100.00;102580.72;5011042;28;20205;-68
2023/05/08 04:09:19;;;;;;;5.73;5.23;;;;;;;7.79;100.00;102578.66;5007034;28;20205;-71
2023/05/08 04:12:13;;;;;;;6.10;5.40;;;;;;;7.81;100.00;102581.31;5011037;28;20245;-68
2023/05/08 04:14:52;;;;;;;7.30;5.83;;;;;;;7.84;100.00;102586.59;5006240;28;20260;-68
2023/05/08 04:17:41;;;;;;;5.90;5.40;;;;;;;7.88;100.00;102583.44;5011793;28;20198;-68
2023/05/08 04:20:12;;;;;;;6.10;5.50;;;;;;;7.91;100.00;102592.16;5011910;28;20295;-69
2023/05/08 04:22:40;;;;;;;6.80;6.10;;;;;;;7.92;100.00;102593.91;5011252;28;20265;-68
2023/05/08 04:25:09;;;;;;;6.57;5.77;;;;;;;7.88;100.00;102597.06;5021953;28;20229;-69
2023/05/08 04:27:35;;;;;;;5.60;5.10;;;;;;;7.93;100.00;102589.69;5008884;28;20194;-69
2023/05/08 04:30:00;;;;;;;6.23;5.63;;;;;;;7.94;100.00;102589.78;5022582;28;20190;-70
2023/05/08 04:32:28;;;;;;;6.17;5.43;;;;;;;8.00;100.00;102597.78;5007995;28;20202;-70
2023/05/08 04:34:55;;;;;;;6.27;5.67;;;;;;;8.06;100.00;102599.81;5012900;28;20260;-69
2023/05/08 04:37:25;;;;;;;5.70;5.20;;;;;;;8.05;100.00;102588.72;5006654;28;20277;-69
2023/05/08 04:39:51;;;;;;;6.60;5.57;;;;;;;8.13;100.00;102590.03;4995662;28;20212;-70
2023/05/08 04:42:18;;;;;;;6.73;5.87;;;;;;;8.15;100.00;102591.00;5011145;28;20210;-70
2023/05/08 04:44:43;;;;;;;6.23;5.63;;;;;;;8.18;100.00;102587.72;4994076;28;20265;-69
2023/05/08 04:47:09;;;;;;;6.63;6.03;;;;;;;8.21;100.00;102593.06;5022365;28;20196;-70
2023/05/08 04:49:34;;;;;;;6.47;5.87;;;;;;;8.25;100.00;102595.84;5007467;28;20588;-70
2023/05/08 04:52:00;;;;;;;6.67;5.90;;;;;;;8.26;100.00;102600.19;5008385;28;20240;-70
2023/05/08 04:54:26;;;;;;;6.83;6.13;;;;;;;8.31;100.00;102591.13;5011359;28;20201;-69
2023/05/08 04:56:52;;;;;;;6.63;6.03;;;;;;;8.42;100.00;102594.25;4994007;28;20205;-70
2023/05/08 04:59:17;;;;;;;6.83;6.13;;;;;;;8.44;100.00;102596.09;5019018;28;20301;-69
2023/05/08 05:01:47;;;;;;;6.53;5.93;;;;;;;8.46;100.00;102601.28;4994712;28;20214;-69
2023/05/08 05:04:12;;;;;;;6.40;5.87;;;;;;;8.48;100.00;102602.28;5008899;28;20190;-70
2023/05/08 05:06:39;;;;;;;8.23;5.93;;;;;;;8.50;100.00;102593.91;5020340;28;20204;-69
2023/05/08 05:09:05;;;;;;;7.13;6.43;;;;;;;8.54;100.00;102600.94;5019059;28;20680;-68
2023/05/08 05:11:31;;;;;;;7.70;5.87;;;;;;;8.66;100.00;102595.63;5024628;28;20292;-69
2023/05/08 05:13:56;;;;;;;6.60;5.50;;;;;;;8.72;100.00;102598.50;5023977;28;20266;-69
2023/05/08 05:16:22;;;;;;;6.70;5.63;;;;;;;8.80;100.00;102597.25;4995767;28;20322;-70
2023/05/08 05:18:47;;;;;;;6.67;6.07;;;;;;;8.79;100.00;102591.25;5007102;28;20214;-69
2023/05/08 05:21:13;;;;;;;6.80;6.20;;;;;;;8.94;100.00;102591.22;5026873;28;20218;-69
2023/05/08 05:23:39;;;;;;;6.27;5.67;;;;;;;8.94;100.00;102591.22;5009124;28;20617;-69
2023/05/08 05:26:05;;;;;;;6.67;5.97;;;;;;;9.03;100.00;102596.84;5015363;28;20202;-69
2023/05/08 05:28:30;;;;;;;6.80;5.93;;;;;;;9.10;100.00;102591.22;5013694;28;20198;-69
2023/05/08 05:30:56;;;;;;;6.73;5.80;;;;;;;9.18;100.00;102603.63;5001167;28;20225;-69
2023/05/08 05:33:21;;;;;;;7.27;6.00;;;;;;;9.27;100.00;102610.91;5020612;28;20273;-69
2023/05/08 05:35:47;;;;;;;8.97;6.07;;;;;;;9.30;100.00;102598.28;5009970;28;20270;-68
2023/05/08 05:38:12;;;;;;;6.23;5.63;;;;;;;9.38;100.00;102597.88;5021443;28;20250;-69
2023/05/08 05:40:38;;;;;;;6.67;5.90;;;;;;;9.44;100.00;102595.63;5016665;28;20215;-69
2023/05/08 05:43:03;;;;;;;7.57;6.20;;;;;;;9.41;100.00;102585.28;5013018;28;20202;-69
2023/05/08 05:45:30;;;;;;;7.70;6.03;;;;;;;9.59;100.00;102598.13;5004024;28;20301;-68
2023/05/08 05:47:55;;;;;;;8.13;6.50;;;;;;;9.63;100.00;102582.13;5006433;28;20186;-69
2023/05/08 05:50:26;;;;;;;6.83;6.00;;;;;;;9.77;100.00;102584.56;5018277;28;20663;-69
2023/05/08 05:52:53;;;;;;;7.13;5.63;;;;;;;9.72;100.00;102587.72;5007198;28;20186;-69
2023/05/08 05:55:19;;;;;;;8.33;5.80;;;;;;;9.87;100.00;102583.38;5020319;28;20835;-69
2023/05/08 05:57:46;;;;;;;7.13;6.10;;;;;;;10.03;100.00;102575.63;5009052;28;20194;-69
2023/05/08 06:00:12;;;;;;;10.30;6.30;;;;;;;10.14;100.00;102566.84;5017619;28;20246;-69
2023/05/08 06:02:43;;;;;;;6.77;5.80;;;;;;;10.16;100.00;102562.66;5019903;28;20222;-69
2023/05/08 06:05:12;;;;;;;6.40;5.70;;;;;;;10.19;100.00;102550.03;5021181;28;20633;-67
2023/05/08 06:07:38;;;;;;;7.53;5.93;;;;;;;10.32;100.00;102550.66;5021170;28;20202;-69
2023/05/08 06:10:04;;;;;;;6.47;5.87;;;;;;;10.45;100.00;102549.56;5006177;28;20206;-69
2023/05/08 06:12:30;;;;;;;7.83;6.20;;;;;;;10.56;100.00;102541.56;5019953;28;20670;-69
2023/05/08 06:14:56;;;;;;;7.53;6.40;;;;;;;10.42;100.00;102531.50;5001993;28;20282;-69
2023/05/08 06:17:21;;;;;;;9.30;6.83;;;;;;;10.68;100.00;102528.47;5007985;28;20248;-70
2023/05/08 06:19:49;;;;;;;6.73;6.07;;;;;;;10.70;100.00;102502.09;5020988;28;20221;-69
2023/05/08 06:22:17;;;;;;;9.87;6.63;;;;;;;10.77;100.00;102498.13;5021651;28;20688;-69
2023/05/08 06:24:42;;;;;;;10.50;6.30;;;;;;;10.93;100.00;102495.47;5022432;28;20230;-69
2023/05/08 06:27:08;;;;;;;7.00;6.30;;;;;;;11.13;100.00;102494.63;5013559;28;20226;-69
2023/05/08 06:29:34;;;;;;;12.03;6.20;;;;;;;11.18;100.00;102442.75;5015681;28;20183;-69
2023/05/08 06:31:59;;;;;;;8.00;6.30;;;;;;;11.20;100.00;102446.25;5021502;28;20744;-70
2023/05/08 06:34:25;;;;;;;9.43;6.20;;;;;;;11.40;100.00;102445.41;5019415;28;20226;-69
2023/05/08 06:36:50;;;;;;;7.07;6.13;;;;;;;11.25;100.00;102419.09;5025117;28;20197;-69
2023/05/08 06:39:16;;;;;;;6.83;6.10;;;;;;;11.40;100.00;102424.91;5028298;28;20217;-69
2023/05/08 06:41:41;;;;;;;6.50;5.87;;;;;;;11.61;100.00;102438.63;5024449;28;20695;-69
2023/05/08 06:44:07;;;;;;;6.53;5.93;;;;;;;11.69;100.00;102409.03;5023288;28;20202;-69
2023/05/08 06:46:32;;;;;;;9.47;6.77;;;;;;;11.70;100.00;102400.50;5024783;28;20285;-69
2023/05/08 06:48:57;;;;;;;6.97;5.87;;;;;;;11.88;100.00;102388.41;5024113;28;20214;-70
2023/05/08 06:51:23;;;;;;;7.80;5.67;;;;;;;12.01;100.00;102380.34;5024110;28;20706;-69
2023/05/08 06:53:48;;;;;;;6.90;5.93;;;;;;;11.97;100.00;102381.03;5021689;28;20676;-69
2023/05/08 06:56:14;;;;;;;8.17;6.73;;;;;;;12.18;100.00;102379.31;5023899;28;20193;-69
2023/05/08 06:58:39;;;;;;;7.77;5.83;;;;;;;12.19;100.00;102365.63;5019614;28;20240;-69
2023/05/08 07:01:05;;;;;;;8.33;6.77;;;;;;;12.17;100.00;102356.97;5018919;28;20222;-69
2023/05/08 07:03:30;;;;;;;7.87;7.07;;;;;;;12.38;100.00;102344.94;5023493;28;20242;-69
2023/05/08 07:05:56;;;;;;;7.30;6.03;;;;;;;12.52;100.00;102345.41;5014992;28;20202;-69
2023/05/08 07:08:21;;;;;;;8.23;6.63;;;;;;;12.28;100.00;102334.28;5019126;28;20183;-69
2023/05/08 07:10:47;;;;;;;11.13;7.13;;;;;;;12.39;100.00;102356.97;5016955;28;20618;-69
2023/05/08 07:13:12;;;;;;;7.03;6.33;;;;;;;12.62;100.00;102326.94;5019400;28;20205;-68
2023/05/08 07:15:38;;;;;;;7.67;6.53;;;;;;;12.72;100.00;102319.59;5018670;28;20202;-69
2023/05/08 07:18:03;;;;;;;7.30;6.60;;;;;;;12.93;100.00;102292.88;5023423;28;20763;-68
2023/05/08 07:20:29;;;;;;;7.73;6.00;;;;;;;13.28;100.00;102315.50;5023930;28;20296;-68
2023/05/08 07:22:55;;;;;;;7.40;6.70;;;;;;;13.27;100.00;102252.91;5023477;28;20298;-68
2023/05/08 07:25:21;;;;;;;7.23;6.53;;;;;;;13.27;100.00;102252.00;5019106;28;20204;-68
2023/05/08 07:27:46;;;;;;;6.77;6.13;;;;;;;13.42;100.00;102265.34;5020094;28;20205;-68
2023/05/08 07:30:12;;;;;;;7.30;6.60;;;;;;;13.42;100.00;102258.50;5022903;28;20282;-68
2023/05/08 07:32:38;;;;;;;6.83;6.23;;;;;;;13.47;100.00;102245.75;5019003;28;20253;-68
2023/05/08 07:35:05;;;;;;;8.27;6.73;;;;;;;13.61;100.00;102226.44;5018847;28;20274;-69
2023/05/08 07:37:31;;;;;;;7.90;7.07;;;;;;;13.67;100.00;102213.78;5019077;28;20289;-68
2023/05/08 07:39:57;;;;;;;7.13;6.50;;;;;;;14.06;100.00;102225.19;5015020;28;20203;-69
2023/05/08 07:42:22;;;;;;;7.43;6.67;;;;;;;14.03;100.00;102184.75;5016281;28;20872;-68
2023/05/08 07:44:48;;;;;;;8.27;7.30;;;;;;;13.69;100.00;102212.13;5006346;28;20241;-68
2023/05/08 07:47:13;;;;;;;8.63;7.23;;;;;;;13.89;100.00;102209.28;5013959;28;20226;-69
2023/05/08 07:49:39;;;;;;;8.17;7.47;;;;;;;13.90;100.00;102176.69;4999113;28;20294;-69
2023/05/08 07:52:04;;;;;;;9.83;7.67;;;;;;;13.99;100.00;102182.94;5017553;28;20675;-68
2023/05/08 07:54:30;;;;;;;7.63;6.83;;;;;;;14.16;100.00;102198.84;5023278;28;20248;-68
2023/05/08 07:56:55;;;;;;;8.53;7.70;;;;;;;14.15;100.00;102246.94;5014341;28;20190;-68
2023/05/08 07:59:21;;;;;;;8.30;7.50;;;;;;;14.59;100.00;102201.75;5014426;28;20258;-70
2023/05/08 08:01:46;;;;;;;7.00;6.40;;;;;;;14.90;100.00;102150.03;5017257;28;20202;-69
2023/05/08 08:04:13;;;;;;;7.80;7.03;;;;;;;14.63;100.00;102132.22;5011492;28;20282;-68
2023/05/08 08:06:39;;;;;;;7.57;6.87;;;;;;;14.62;100.00;102134.75;5019115;28;20246;-68
2023/05/08 08:09:04;;;;;;;7.97;7.27;;;;;;;14.45;100.00;102167.88;5019262;28;20599;-69
2023/05/08 08:11:30;;;;;;;8.00;7.13;;;;;;;14.63;100.00;102158.00;5016346;28;20207;-69
2023/05/08 08:13:56;;;;;;;8.00;7.00;;;;;;;14.57;100.00;102133.78;5015864;28;20202;-69
2023/05/08 08:16:21;;;;;;;8.20;7.33;;;;;;;14.88;100.00;102113.88;5012135;28;20260;-69
2023/05/08 08:18:46;;;;;;;7.87;7.17;;;;;;;14.91;100.00;102132.03;5019001;28;20255;-69
2023/05/08 08:21:12;;;;;;;8.20;7.40;;;;;;;15.22;100.00;102103.47;5022428;28;20254;-69
2023/05/08 08:23:37;;;;;;;7.83;7.03;;;;;;;15.50;100.00;102099.75;5019791;28;20676;-69
2023/05/08 08:26:03;;;;;;;8.37;7.57;;;;;;;15.67;100.00;102101.84;5016770;28;20191;-69
2023/05/08 08:28:28;;;;;;;8.37;7.57;;;;;;;15.61;93.88;102041.47;5016040;28;20249;-69
2023/05/08 08:30:54;;;;;;;8.10;7.30;;;;;;;15.83;95.08;102040.97;5012280;28;20217;-69
2023/05/08 08:33:20;;;;;;;7.50;6.80;;;;;;;15.71;95.11;102043.34;5020848;28;20414;-69
2023/05/08 08:35:45;;;;;;;8.23;7.37;;;;;;;15.55;98.58;102068.03;5025462;28;20190;-68
2023/05/08 08:38:11;;;;;;;8.63;7.63;;;;;;;15.33;96.12;102059.81;5016513;28;20225;-69
2023/05/08 08:40:40;;;;;;;7.53;6.73;;;;;;;15.93;96.51;102058.41;5005919;28;20310;-69
2023/05/08 08:43:06;;;;;;;8.17;7.17;;;;;;;16.22;91.21;102027.00;5014484;28;20199;-68
2023/05/08 08:45:32;;;;;;;7.80;7.00;;;;;;;16.61;90.79;102019.84;5018729;28;20199;-69
2023/05/08 08:48:00;;;;;;;8.07;6.63;;;;;;;16.63;84.69;101984.53;5017674;28;20938;-69
2023/05/08 08:50:31;;;;;;;8.47;7.57;;;;;;;16.57;85.52;101968.09;5023897;28;20195;-68
2023/05/08 08:53:09;;;;;;;8.20;7.50;;;;;;;16.37;86.34;101991.03;5008543;28;20247;-68
2023/05/08 08:55:39;;;;;;;8.53;7.23;;;;;;;16.14;83.58;101953.66;5021674;28;20570;-68
2023/05/08 08:58:16;;;;;;;6.83;6.27;;;;;;;16.90;80.01;101937.44;5017533;28;20198;-67
2023/05/08 09:00:42;;;;;;;10.50;6.47;;;;;;;16.84;75.33;101904.59;5019813;28;20229;-68
2023/05/08 09:03:08;;;;;;;7.90;5.97;;;;;;;16.90;75.71;101924.50;5025104;28;20203;-68
2023/05/08 09:05:35;;;;;;;7.27;6.10;;;;;;;16.74;72.38;101873.44;5021588;28;20237;-68
2023/05/08 09:08:01;;;;;;;7.10;6.40;;;;;;;17.35;75.38;101889.56;5023190;28;20198;-68
2023/05/08 09:10:27;;;;;;;7.00;6.27;;;;;;;17.44;71.98;101881.91;5025406;28;20190;-68
2023/05/08 09:12:52;;;;;;;7.90;7.10;;;;;;;16.93;74.13;101891.75;5019019;28;20206;-68
2023/05/08 09:15:18;;;;;;;7.73;6.90;;;;;;;17.23;74.81;101883.44;5017046;28;20198;-68
2023/05/08 09:17:43;;;;;;;7.87;5.70;;;;;;;17.24;69.83;101867.03;5021815;28;20190;-68
2023/05/08 09:20:10;;;;;;;5.93;5.20;;;;;;;17.82;68.50;101841.59;5021428;28;20226;-68
2023/05/08 09:22:36;;;;;;;8.90;5.50;;;;;;;17.52;66.17;101820.69;5024664;28;20688;-67
2023/05/08 09:25:02;;;;;;;9.33;5.43;;;;;;;17.74;64.29;101808.72;5025589;28;20202;-69
2023/05/08 09:27:29;;;;;;;5.10;4.70;;;;;;;18.06;62.91;101794.22;5017178;28;20194;-67
2023/05/08 09:30:07;;;;;;;5.70;5.20;;;;;;;17.94;61.52;101784.66;5027967;28;20240;-68
2023/05/08 09:32:35;;;;;;;6.40;5.60;;;;;;;17.66;63.58;101831.13;5023885;28;20237;-68
2023/05/08 09:35:01;;;;;;;8.00;4.90;;;;;;;18.20;61.21;101792.53;5018853;28;20190;-68
2023/05/08 09:37:27;;;;;;;5.17;4.67;;;;;;;18.56;60.21;101790.09;5027257;28;20199;-71
2023/05/08 09:39:53;;;;;;;14.30;4.97;;;;;;;18.79;57.50;101892.22;5020049;28;20238;-70
2023/05/08 09:42:19;;;;;;;7.70;4.93;;;;;;;18.60;55.09;101904.25;5018654;28;20222;-69
2023/05/08 09:44:50;;;;;;;5.53;5.03;;;;;;;18.64;58.79;101976.06;5018051;28;20202;-69
2023/05/08 09:47:19;;;;;;;8.43;5.57;;;;;;;18.60;56.57;101950.09;5016941;28;20213;-70
2023/05/08 09:50:09;;;;;;;6.10;5.03;;;;;;;18.96;57.83;101965.81;5020263;28;20261;-69
2023/05/08 09:52:37;;;;;;;5.90;4.53;;;;;;;19.14;55.13;101925.19;5018339;28;20240;-69
2023/05/08 09:55:02;;;;;;;5.90;5.10;;;;;;;19.30;55.80;101957.28;5016544;28;20195;-69
2023/05/08 09:57:30;;;;;;;5.00;4.53;;;;;;;19.32;54.99;101952.94;5011441;28;20252;-68
2023/05/08 10:00:05;;;;;;;5.33;4.83;;;;;;;19.44;53.63;101945.19;5018486;28;20226;-69
2023/05/08 10:02:33;;;;;;;5.70;5.10;;;;;;;19.53;54.48;101965.97;5017620;28;20608;-70
2023/05/08 10:04:58;;;;;;;5.83;5.23;;;;;;;19.53;52.87;101935.63;5024761;28;20194;-70
2023/05/08 10:07:31;;;;;;;5.03;4.53;;;;;;;19.73;51.55;101935.66;5007442;28;20703;-69
2023/05/08 10:10:01;;;;;;;4.70;4.20;;;;;;;20.00;51.57;101978.09;5022056;28;20194;-69
2023/05/08 10:12:27;;;;;;;6.13;4.37;;;;;;;19.86;51.47;101995.44;5024169;28;20538;-69
2023/05/08 10:14:54;;;;;;;4.73;4.07;;;;;;;19.21;51.86;101997.03;5018158;28;20254;-69
2023/05/08 10:17:46;;;;;;;5.50;4.00;;;;;;;19.65;51.72;102015.34;5021959;28;20221;-69
2023/05/08 10:20:14;;;;;;;5.87;4.27;;;;;;;19.44;51.31;102013.59;5007019;28;20227;-69
2023/05/08 10:22:43;;;;;;;5.83;4.03;;;;;;;19.41;50.30;102005.81;5023440;28;20796;-70
2023/05/08 10:25:15;;;;;;;4.17;3.57;;;;;;;19.58;49.75;101990.25;5017099;28;20202;-69
2023/05/08 10:27:51;;;;;;;3.83;3.13;;;;;;;19.87;50.56;102010.19;5021992;28;20277;-68
2023/05/08 10:30:22;;;;;;;5.53;3.57;;;;;;;20.09;49.37;102011.06;5016157;28;20208;-67
2023/05/08 10:32:53;;;;;;;5.40;3.50;;;;;;;19.93;48.36;102017.97;5013385;28;20207;-68
2023/05/08 10:35:20;;;;;;;6.97;4.20;;;;;;;19.41;48.08;102031.78;5018320;28;20195;-67
2023/05/08 10:37:47;;;;;;;5.53;4.10;;;;;;;19.41;49.10;102073.38;5021580;28;20201;-67
2023/05/08 10:40:14;;;;;;;4.40;4.10;;;;;;;19.00;49.21;102087.00;5018192;28;20215;-67
2023/05/08 10:42:40;;;;;;;5.83;4.10;;;;;;;19.12;49.79;102100.06;5018413;28;20193;-67
2023/05/08 10:45:07;;;;;;;6.00;3.80;;;;;;;18.94;48.59;102086.97;5014830;28;20203;-71
2023/05/08 10:47:54;;;;;;;4.70;4.03;;;;;;;18.79;49.83;102102.47;5025953;28;20201;-69
2023/05/08 10:50:22;;;;;;;7.80;3.90;;;;;;;18.48;48.74;102091.03;5009588;28;20226;-69
2023/05/08 10:53:15;;;;;;;4.23;3.80;;;;;;;19.16;49.63;102092.25;5019502;28;20194;-68
2023/05/08 10:55:45;;;;;;;4.73;3.83;;;;;;;19.17;47.84;102055.03;5018118;28;20210;-69
2023/05/08 10:58:27;;;;;;;4.90;3.50;;;;;;;19.16;47.39;102060.25;5017015;28;20207;-71
2023/05/08 11:00:52;;;;;;;4.17;3.20;;;;;;;19.38;46.17;102047.34;5013145;28;20215;-70
2023/05/08 11:03:29;;;;;;;3.50;3.20;;;;;;;19.72;46.60;102062.16;5015707;28;20209;-70
2023/05/08 11:05:56;;;;;;;5.07;3.60;;;;;;;20.50;45.04;102050.94;5020381;28;20256;-69
2023/05/08 11:08:26;;;;;;;3.03;2.80;;;;;;;20.71;43.80;102174.13;5020477;28;20203;-70
2023/05/08 11:11:01;;;;;;;3.80;2.70;;;;;;;20.78;42.30;102161.97;5018317;28;20217;-70
2023/05/08 11:13:35;;;;;;;3.57;2.83;;;;;;;20.31;41.48;102171.53;5014021;28;20201;-69
2023/05/08 11:16:02;;;;;;;5.17;3.23;;;;;;;20.61;42.30;102192.34;5016717;28;20627;-69
2023/05/08 11:18:28;;;;;;;4.57;3.20;;;;;;;20.76;42.64;102192.34;5012276;28;20190;-71
2023/05/08 11:20:57;;;;;;;2.90;2.70;;;;;;;20.96;43.53;102209.72;5025034;28;20297;-70
2023/05/08 11:23:27;;;;;;;3.83;3.07;;;;;;;20.84;42.43;102188.00;5018917;28;20217;-70
2023/05/08 11:26:00;;;;;;;3.00;2.70;;;;;;;20.76;42.18;102190.63;5017991;28;20191;-71
2023/05/08 11:28:27;;;;;;;2.50;2.30;;;;;;;20.93;41.41;102172.41;5017341;28;20186;-70
2023/05/08 11:30:54;;;;;;;3.17;2.37;;;;;;;21.26;40.97;102177.53;5014690;28;20229;-71
2023/05/08 11:33:20;;;;;;;3.93;2.70;;;;;;;21.37;40.79;102188.81;5006112;28;20190;-70
2023/05/08 11:36:00;;;;;;;3.80;2.67;;;;;;;21.14;40.84;102198.44;5023657;28;20278;-70